sensor_id;sensor_type;location;lat;lon;timestamp;temperature;humidity
39957;DHT22;48483;44.640;7.494;2022-08-25T00:01:15;25.20;82.30
39957;DHT22;48483;44.640;7.494;2022-08-25T00:03:42;25.20;82.10
39957;DHT22;48483;44.640;7.494;2022-08-25T00:06:11;25.20;82.20
39957;DHT22;48483;44.640;7.494;2022-08-25T00:08:38;25.20;82.40
39957;DHT22;48483;44.640;7.494;2022-08-25T00:11:06;25.20;82.50
39957;DHT22;48483;44.640;7.494;2022-08-25T00:13:34;25.10;82.30
39957;DHT22;48483;44.640;7.494;2022-08-25T00:16:01;25.10;82.30
39957;DHT22;48483;44.640;7.494;2022-08-25T00:18:28;25.20;82.30
39957;DHT22;48483;44.640;7.494;2022-08-25T00:20:55;25.10;82.20
39957;DHT22;48483;44.640;7.494;2022-08-25T00:23:22;25.10;82.10
39957;DHT22;48483;44.640;7.494;2022-08-25T00:25:50;25.10;82.30
39957;DHT22;48483;44.640;7.494;2022-08-25T00:28:16;25.20;82.40
39957;DHT22;48483;44.640;7.494;2022-08-25T00:30:45;25.20;82.40
39957;DHT22;48483;44.640;7.494;2022-08-25T00:33:11;25.20;82.70
39957;DHT22;48483;44.640;7.494;2022-08-25T00:35:39;25.20;82.60
39957;DHT22;48483;44.640;7.494;2022-08-25T00:38:07;25.20;82.60
39957;DHT22;48483;44.640;7.494;2022-08-25T00:40:35;25.20;82.60
39957;DHT22;48483;44.640;7.494;2022-08-25T00:43:02;25.20;82.50
39957;DHT22;48483;44.640;7.494;2022-08-25T00:45:29;25.20;82.60
39957;DHT22;48483;44.640;7.494;2022-08-25T00:47:57;25.20;82.90
39957;DHT22;48483;44.640;7.494;2022-08-25T00:50:24;25.10;82.70
39957;DHT22;48483;44.640;7.494;2022-08-25T00:52:54;25.10;82.90
39957;DHT22;48483;44.640;7.494;2022-08-25T00:55:24;25.20;82.80
39957;DHT22;48483;44.640;7.494;2022-08-25T00:57:56;25.10;82.70
39957;DHT22;48483;44.640;7.494;2022-08-25T01:00:25;25.10;82.80
39957;DHT22;48483;44.640;7.494;2022-08-25T01:02:52;25.10;83.00
39957;DHT22;48483;44.640;7.494;2022-08-25T01:05:20;25.10;82.90
39957;DHT22;48483;44.640;7.494;2022-08-25T01:07:48;25.10;83.20
39957;DHT22;48483;44.640;7.494;2022-08-25T01:10:16;25.10;83.40
39957;DHT22;48483;44.640;7.494;2022-08-25T01:12:43;25.10;83.70
39957;DHT22;48483;44.640;7.494;2022-08-25T01:15:11;25.10;83.50
39957;DHT22;48483;44.640;7.494;2022-08-25T01:17:45;25.00;83.60
39957;DHT22;48483;44.640;7.494;2022-08-25T01:20:12;25.00;83.60
39957;DHT22;48483;44.640;7.494;2022-08-25T01:22:41;25.00;83.70
39957;DHT22;48483;44.640;7.494;2022-08-25T01:25:18;25.00;83.90
39957;DHT22;48483;44.640;7.494;2022-08-25T01:27:46;25.00;85.00
39957;DHT22;48483;44.640;7.494;2022-08-25T01:30:13;24.90;86.00
39957;DHT22;48483;44.640;7.494;2022-08-25T01:32:40;24.90;88.00
39957;DHT22;48483;44.640;7.494;2022-08-25T01:35:07;24.80;89.70
39957;DHT22;48483;44.640;7.494;2022-08-25T01:37:34;24.70;90.20
39957;DHT22;48483;44.640;7.494;2022-08-25T01:40:03;24.70;90.60
39957;DHT22;48483;44.640;7.494;2022-08-25T01:42:41;24.60;90.70
39957;DHT22;48483;44.640;7.494;2022-08-25T01:45:08;24.60;91.00
39957;DHT22;48483;44.640;7.494;2022-08-25T01:47:36;24.60;91.40
39957;DHT22;48483;44.640;7.494;2022-08-25T01:50:04;24.60;92.10
39957;DHT22;48483;44.640;7.494;2022-08-25T01:52:35;24.50;92.40
39957;DHT22;48483;44.640;7.494;2022-08-25T01:55:05;24.50;92.70
39957;DHT22;48483;44.640;7.494;2022-08-25T01:57:31;24.40;93.30
39957;DHT22;48483;44.640;7.494;2022-08-25T01:59:58;24.40;93.30
39957;DHT22;48483;44.640;7.494;2022-08-25T02:02:25;24.40;93.50
39957;DHT22;48483;44.640;7.494;2022-08-25T02:04:52;24.40;93.80
39957;DHT22;48483;44.640;7.494;2022-08-25T02:07:19;24.30;93.80
39957;DHT22;48483;44.640;7.494;2022-08-25T02:09:46;24.30;94.10
39957;DHT22;48483;44.640;7.494;2022-08-25T02:12:14;24.30;94.30
39957;DHT22;48483;44.640;7.494;2022-08-25T02:14:42;24.30;94.70
39957;DHT22;48483;44.640;7.494;2022-08-25T02:17:09;24.20;94.70
39957;DHT22;48483;44.640;7.494;2022-08-25T02:19:35;24.20;94.80
39957;DHT22;48483;44.640;7.494;2022-08-25T02:22:03;24.10;94.90
39957;DHT22;48483;44.640;7.494;2022-08-25T02:24:29;24.10;95.10
39957;DHT22;48483;44.640;7.494;2022-08-25T02:26:57;24.10;95.00
39957;DHT22;48483;44.640;7.494;2022-08-25T02:29:25;24.10;95.00
39957;DHT22;48483;44.640;7.494;2022-08-25T02:31:51;24.10;95.30
39957;DHT22;48483;44.640;7.494;2022-08-25T02:34:18;24.10;95.50
39957;DHT22;48483;44.640;7.494;2022-08-25T02:36:45;24.00;96.00
39957;DHT22;48483;44.640;7.494;2022-08-25T02:39:12;23.90;96.50
39957;DHT22;48483;44.640;7.494;2022-08-25T02:41:39;23.90;96.80
39957;DHT22;48483;44.640;7.494;2022-08-25T02:44:06;23.80;97.40
39957;DHT22;48483;44.640;7.494;2022-08-25T02:46:35;23.80;97.60
39957;DHT22;48483;44.640;7.494;2022-08-25T02:49:03;23.70;97.80
39957;DHT22;48483;44.640;7.494;2022-08-25T02:51:30;23.70;97.80
39957;DHT22;48483;44.640;7.494;2022-08-25T02:53:58;23.60;98.00
39957;DHT22;48483;44.640;7.494;2022-08-25T02:56:25;23.60;97.90
39957;DHT22;48483;44.640;7.494;2022-08-25T02:58:52;23.60;97.80
39957;DHT22;48483;44.640;7.494;2022-08-25T03:01:19;23.60;97.40
39957;DHT22;48483;44.640;7.494;2022-08-25T03:03:48;23.60;97.40
39957;DHT22;48483;44.640;7.494;2022-08-25T03:06:17;23.60;97.80
39957;DHT22;48483;44.640;7.494;2022-08-25T03:08:45;23.50;97.90
39957;DHT22;48483;44.640;7.494;2022-08-25T03:11:12;23.50;98.50
39957;DHT22;48483;44.640;7.494;2022-08-25T03:13:39;23.50;98.60
39957;DHT22;48483;44.640;7.494;2022-08-25T03:16:06;23.40;98.80
39957;DHT22;48483;44.640;7.494;2022-08-25T03:18:34;23.40;99.20
39957;DHT22;48483;44.640;7.494;2022-08-25T03:21:02;23.40;99.10
39957;DHT22;48483;44.640;7.494;2022-08-25T03:23:29;23.40;98.80
39957;DHT22;48483;44.640;7.494;2022-08-25T03:25:56;23.40;98.80
39957;DHT22;48483;44.640;7.494;2022-08-25T03:28:41;23.30;98.90
39957;DHT22;48483;44.640;7.494;2022-08-25T03:31:08;23.20;99.10
39957;DHT22;48483;44.640;7.494;2022-08-25T03:33:35;23.20;99.20
39957;DHT22;48483;44.640;7.494;2022-08-25T03:36:04;23.10;99.10
39957;DHT22;48483;44.640;7.494;2022-08-25T03:38:31;23.10;98.80
39957;DHT22;48483;44.640;7.494;2022-08-25T03:40:57;23.10;98.50
39957;DHT22;48483;44.640;7.494;2022-08-25T03:43:24;23.10;98.30
39957;DHT22;48483;44.640;7.494;2022-08-25T03:45:50;23.10;98.20
39957;DHT22;48483;44.640;7.494;2022-08-25T03:48:17;23.10;98.20
39957;DHT22;48483;44.640;7.494;2022-08-25T03:50:45;23.10;98.30
39957;DHT22;48483;44.640;7.494;2022-08-25T03:53:13;23.10;98.90
39957;DHT22;48483;44.640;7.494;2022-08-25T03:55:40;23.10;98.80
39957;DHT22;48483;44.640;7.494;2022-08-25T03:58:07;23.00;98.80
39957;DHT22;48483;44.640;7.494;2022-08-25T04:00:34;23.00;98.90
39957;DHT22;48483;44.640;7.494;2022-08-25T04:03:01;23.00;98.90
39957;DHT22;48483;44.640;7.494;2022-08-25T04:05:27;23.00;98.90
39957;DHT22;48483;44.640;7.494;2022-08-25T04:07:54;22.90;99.00
39957;DHT22;48483;44.640;7.494;2022-08-25T04:10:22;22.90;99.10
39957;DHT22;48483;44.640;7.494;2022-08-25T04:12:49;22.80;99.30
39957;DHT22;48483;44.640;7.494;2022-08-25T04:15:16;22.80;99.30
39957;DHT22;48483;44.640;7.494;2022-08-25T04:17:43;22.70;99.30
39957;DHT22;48483;44.640;7.494;2022-08-25T04:20:11;22.70;99.40
39957;DHT22;48483;44.640;7.494;2022-08-25T04:22:38;22.70;99.50
39957;DHT22;48483;44.640;7.494;2022-08-25T04:25:06;22.70;99.50
39957;DHT22;48483;44.640;7.494;2022-08-25T04:27:35;22.70;99.60
39957;DHT22;48483;44.640;7.494;2022-08-25T04:30:03;22.60;99.70
39957;DHT22;48483;44.640;7.494;2022-08-25T04:32:30;22.60;99.90
39957;DHT22;48483;44.640;7.494;2022-08-25T04:34:57;22.70;99.60
39957;DHT22;48483;44.640;7.494;2022-08-25T04:37:24;22.70;99.40
39957;DHT22;48483;44.640;7.494;2022-08-25T04:39:51;22.70;99.50
39957;DHT22;48483;44.640;7.494;2022-08-25T04:42:18;22.70;99.70
39957;DHT22;48483;44.640;7.494;2022-08-25T04:44:46;22.60;99.90
39957;DHT22;48483;44.640;7.494;2022-08-25T04:47:13;22.60;99.90
39957;DHT22;48483;44.640;7.494;2022-08-25T04:49:39;22.60;99.90
39957;DHT22;48483;44.640;7.494;2022-08-25T04:52:06;22.60;99.90
39957;DHT22;48483;44.640;7.494;2022-08-25T04:54:33;22.60;99.90
39957;DHT22;48483;44.640;7.494;2022-08-25T04:57:01;22.60;99.90
39957;DHT22;48483;44.640;7.494;2022-08-25T04:59:27;22.60;99.90
39957;DHT22;48483;44.640;7.494;2022-08-25T05:01:56;22.60;99.90
39957;DHT22;48483;44.640;7.494;2022-08-25T05:04:24;22.50;99.90
39957;DHT22;48483;44.640;7.494;2022-08-25T05:06:50;22.50;99.90
39957;DHT22;48483;44.640;7.494;2022-08-25T05:09:17;22.50;99.90
39957;DHT22;48483;44.640;7.494;2022-08-25T05:11:44;22.50;99.90
39957;DHT22;48483;44.640;7.494;2022-08-25T05:14:10;22.50;99.90
39957;DHT22;48483;44.640;7.494;2022-08-25T05:16:40;22.50;99.90
39957;DHT22;48483;44.640;7.494;2022-08-25T05:19:08;22.50;99.90
39957;DHT22;48483;44.640;7.494;2022-08-25T05:21:35;22.50;99.90
39957;DHT22;48483;44.640;7.494;2022-08-25T05:24:03;22.50;99.90
39957;DHT22;48483;44.640;7.494;2022-08-25T05:26:31;22.50;99.90
39957;DHT22;48483;44.640;7.494;2022-08-25T05:29:00;22.50;99.90
39957;DHT22;48483;44.640;7.494;2022-08-25T05:31:27;22.50;99.90
39957;DHT22;48483;44.640;7.494;2022-08-25T05:33:54;22.50;99.90
39957;DHT22;48483;44.640;7.494;2022-08-25T05:36:25;22.50;99.90
39957;DHT22;48483;44.640;7.494;2022-08-25T05:38:52;22.60;99.90
39957;DHT22;48483;44.640;7.494;2022-08-25T05:41:23;22.60;99.90
39957;DHT22;48483;44.640;7.494;2022-08-25T05:43:50;22.70;99.90
39957;DHT22;48483;44.640;7.494;2022-08-25T05:46:18;22.70;99.90
39957;DHT22;48483;44.640;7.494;2022-08-25T05:48:45;22.70;99.90
39957;DHT22;48483;44.640;7.494;2022-08-25T05:51:12;22.70;99.90
39957;DHT22;48483;44.640;7.494;2022-08-25T05:53:43;22.70;99.90
39957;DHT22;48483;44.640;7.494;2022-08-25T05:56:10;22.70;99.90
39957;DHT22;48483;44.640;7.494;2022-08-25T05:58:39;22.80;99.90
39957;DHT22;48483;44.640;7.494;2022-08-25T06:01:07;22.80;99.90
39957;DHT22;48483;44.640;7.494;2022-08-25T06:03:52;22.90;99.90
39957;DHT22;48483;44.640;7.494;2022-08-25T06:06:20;22.90;99.90
39957;DHT22;48483;44.640;7.494;2022-08-25T06:08:48;23.00;99.90
39957;DHT22;48483;44.640;7.494;2022-08-25T06:11:16;23.00;99.90
39957;DHT22;48483;44.640;7.494;2022-08-25T06:13:42;23.10;99.90
39957;DHT22;48483;44.640;7.494;2022-08-25T06:16:09;23.10;99.90
39957;DHT22;48483;44.640;7.494;2022-08-25T06:18:36;23.10;99.90
39957;DHT22;48483;44.640;7.494;2022-08-25T06:21:08;23.20;99.90
39957;DHT22;48483;44.640;7.494;2022-08-25T06:23:36;23.30;99.90
39957;DHT22;48483;44.640;7.494;2022-08-25T06:26:04;23.30;99.90
39957;DHT22;48483;44.640;7.494;2022-08-25T06:28:31;23.30;99.90
39957;DHT22;48483;44.640;7.494;2022-08-25T06:30:58;23.40;99.90
39957;DHT22;48483;44.640;7.494;2022-08-25T06:33:25;23.50;99.90
39957;DHT22;48483;44.640;7.494;2022-08-25T06:35:53;23.60;99.90
39957;DHT22;48483;44.640;7.494;2022-08-25T06:38:21;23.60;99.90
39957;DHT22;48483;44.640;7.494;2022-08-25T06:40:48;23.70;99.90
39957;DHT22;48483;44.640;7.494;2022-08-25T06:43:18;23.80;99.90
39957;DHT22;48483;44.640;7.494;2022-08-25T06:45:45;23.90;99.90
39957;DHT22;48483;44.640;7.494;2022-08-25T06:48:11;24.00;99.90
39957;DHT22;48483;44.640;7.494;2022-08-25T06:50:38;24.10;99.90
39957;DHT22;48483;44.640;7.494;2022-08-25T06:53:05;24.20;99.90
39957;DHT22;48483;44.640;7.494;2022-08-25T06:55:32;24.30;99.90
39957;DHT22;48483;44.640;7.494;2022-08-25T06:58:01;24.40;99.90
39957;DHT22;48483;44.640;7.494;2022-08-25T07:00:30;24.50;99.90
39957;DHT22;48483;44.640;7.494;2022-08-25T07:02:57;24.60;99.90
39957;DHT22;48483;44.640;7.494;2022-08-25T07:05:27;24.70;99.90
39957;DHT22;48483;44.640;7.494;2022-08-25T07:07:54;24.80;98.80
39957;DHT22;48483;44.640;7.494;2022-08-25T07:10:20;24.90;98.50
39957;DHT22;48483;44.640;7.494;2022-08-25T07:12:47;25.10;98.30
39957;DHT22;48483;44.640;7.494;2022-08-25T07:15:14;25.20;98.20
39957;DHT22;48483;44.640;7.494;2022-08-25T07:17:42;25.30;97.40
39957;DHT22;48483;44.640;7.494;2022-08-25T07:20:10;25.50;96.40
39957;DHT22;48483;44.640;7.494;2022-08-25T07:22:37;25.60;95.30
39957;DHT22;48483;44.640;7.494;2022-08-25T07:25:04;25.60;95.00
39957;DHT22;48483;44.640;7.494;2022-08-25T07:27:31;25.80;95.20
39957;DHT22;48483;44.640;7.494;2022-08-25T07:29:57;25.80;94.60
39957;DHT22;48483;44.640;7.494;2022-08-25T07:32:24;25.90;94.20
39957;DHT22;48483;44.640;7.494;2022-08-25T07:34:52;25.90;93.90
39957;DHT22;48483;44.640;7.494;2022-08-25T07:37:38;26.00;93.40
39957;DHT22;48483;44.640;7.494;2022-08-25T07:40:07;26.10;92.10
39957;DHT22;48483;44.640;7.494;2022-08-25T07:42:34;26.20;91.40
39957;DHT22;48483;44.640;7.494;2022-08-25T07:45:01;26.20;90.60
39957;DHT22;48483;44.640;7.494;2022-08-25T07:47:29;26.30;90.60
39957;DHT22;48483;44.640;7.494;2022-08-25T07:49:58;26.30;90.20
39957;DHT22;48483;44.640;7.494;2022-08-25T07:52:25;26.40;90.00
39957;DHT22;48483;44.640;7.494;2022-08-25T07:54:51;26.50;90.70
39957;DHT22;48483;44.640;7.494;2022-08-25T07:57:19;26.50;91.40
39957;DHT22;48483;44.640;7.494;2022-08-25T07:59:47;26.50;90.10
39957;DHT22;48483;44.640;7.494;2022-08-25T08:02:14;26.60;89.70
39957;DHT22;48483;44.640;7.494;2022-08-25T08:04:40;26.60;89.20
39957;DHT22;48483;44.640;7.494;2022-08-25T08:07:10;26.70;89.50
39957;DHT22;48483;44.640;7.494;2022-08-25T08:09:36;26.90;89.50
39957;DHT22;48483;44.640;7.494;2022-08-25T08:12:03;27.00;88.20
39957;DHT22;48483;44.640;7.494;2022-08-25T08:14:30;27.00;87.50
39957;DHT22;48483;44.640;7.494;2022-08-25T08:16:57;27.10;86.60
39957;DHT22;48483;44.640;7.494;2022-08-25T08:19:24;27.20;85.70
39957;DHT22;48483;44.640;7.494;2022-08-25T08:21:50;27.20;85.90
39957;DHT22;48483;44.640;7.494;2022-08-25T08:24:19;27.10;85.00
39957;DHT22;48483;44.640;7.494;2022-08-25T08:26:45;27.20;84.60
39957;DHT22;48483;44.640;7.494;2022-08-25T08:29:12;27.30;85.00
39957;DHT22;48483;44.640;7.494;2022-08-25T08:31:40;27.30;84.60
39957;DHT22;48483;44.640;7.494;2022-08-25T08:34:06;27.40;85.20
39957;DHT22;48483;44.640;7.494;2022-08-25T08:36:34;27.40;84.90
39957;DHT22;48483;44.640;7.494;2022-08-25T08:39:00;27.50;84.40
39957;DHT22;48483;44.640;7.494;2022-08-25T08:41:39;27.60;84.30
39957;DHT22;48483;44.640;7.494;2022-08-25T08:44:35;27.60;83.80
39957;DHT22;48483;44.640;7.494;2022-08-25T08:47:10;27.60;83.50
39957;DHT22;48483;44.640;7.494;2022-08-25T08:49:43;27.60;83.50
39957;DHT22;48483;44.640;7.494;2022-08-25T08:52:13;27.60;83.00
39957;DHT22;48483;44.640;7.494;2022-08-25T08:54:41;27.70;83.90
39957;DHT22;48483;44.640;7.494;2022-08-25T08:57:12;27.80;83.90
39957;DHT22;48483;44.640;7.494;2022-08-25T08:59:48;27.70;82.80
39957;DHT22;48483;44.640;7.494;2022-08-25T09:02:24;27.70;82.10
39957;DHT22;48483;44.640;7.494;2022-08-25T09:04:54;27.70;82.30
39957;DHT22;48483;44.640;7.494;2022-08-25T09:07:29;27.70;81.30
39957;DHT22;48483;44.640;7.494;2022-08-25T09:09:57;27.70;80.80
39957;DHT22;48483;44.640;7.494;2022-08-25T09:12:32;27.80;80.40
39957;DHT22;48483;44.640;7.494;2022-08-25T09:15:08;27.90;81.30
39957;DHT22;48483;44.640;7.494;2022-08-25T09:18:02;27.90;81.00
39957;DHT22;48483;44.640;7.494;2022-08-25T09:20:54;28.00;79.70
39957;DHT22;48483;44.640;7.494;2022-08-25T09:23:33;28.10;79.00
39957;DHT22;48483;44.640;7.494;2022-08-25T09:26:14;28.10;79.30
39957;DHT22;48483;44.640;7.494;2022-08-25T09:28:48;28.20;78.60
39957;DHT22;48483;44.640;7.494;2022-08-25T09:31:21;28.20;77.60
39957;DHT22;48483;44.640;7.494;2022-08-25T09:33:50;28.20;77.80
39957;DHT22;48483;44.640;7.494;2022-08-25T09:36:18;28.30;78.40
39957;DHT22;48483;44.640;7.494;2022-08-25T09:38:45;28.30;77.50
39957;DHT22;48483;44.640;7.494;2022-08-25T09:41:15;28.20;78.30
39957;DHT22;48483;44.640;7.494;2022-08-25T09:43:43;28.30;75.60
39957;DHT22;48483;44.640;7.494;2022-08-25T09:46:13;28.20;75.70
39957;DHT22;48483;44.640;7.494;2022-08-25T09:48:44;28.20;76.90
39957;DHT22;48483;44.640;7.494;2022-08-25T09:51:20;28.30;76.40
39957;DHT22;48483;44.640;7.494;2022-08-25T09:53:52;28.40;74.80
39957;DHT22;48483;44.640;7.494;2022-08-25T09:56:22;28.40;75.20
39957;DHT22;48483;44.640;7.494;2022-08-25T09:58:50;28.50;75.00
39957;DHT22;48483;44.640;7.494;2022-08-25T10:01:20;28.60;74.30
39957;DHT22;48483;44.640;7.494;2022-08-25T10:03:57;28.70;72.10
39957;DHT22;48483;44.640;7.494;2022-08-25T10:06:25;28.60;70.70
39957;DHT22;48483;44.640;7.494;2022-08-25T10:08:56;28.60;71.70
39957;DHT22;48483;44.640;7.494;2022-08-25T10:11:40;28.60;72.00
39957;DHT22;48483;44.640;7.494;2022-08-25T10:14:17;28.70;72.30
39957;DHT22;48483;44.640;7.494;2022-08-25T10:16:47;28.60;70.30
39957;DHT22;48483;44.640;7.494;2022-08-25T10:19:24;28.60;71.20
39957;DHT22;48483;44.640;7.494;2022-08-25T10:22:06;28.70;70.50
39957;DHT22;48483;44.640;7.494;2022-08-25T10:24:34;28.60;70.00
39957;DHT22;48483;44.640;7.494;2022-08-25T10:27:06;28.60;70.30
39957;DHT22;48483;44.640;7.494;2022-08-25T10:29:52;28.60;70.40
39957;DHT22;48483;44.640;7.494;2022-08-25T10:32:29;28.70;71.00
39957;DHT22;48483;44.640;7.494;2022-08-25T10:35:02;28.70;70.90
39957;DHT22;48483;44.640;7.494;2022-08-25T10:37:34;28.80;70.10
39957;DHT22;48483;44.640;7.494;2022-08-25T10:40:13;28.80;70.10
39957;DHT22;48483;44.640;7.494;2022-08-25T10:42:50;28.90;70.80
39957;DHT22;48483;44.640;7.494;2022-08-25T10:45:21;28.90;70.70
39957;DHT22;48483;44.640;7.494;2022-08-25T10:48:36;29.00;69.40
39957;DHT22;48483;44.640;7.494;2022-08-25T10:51:15;29.00;69.00
39957;DHT22;48483;44.640;7.494;2022-08-25T10:53:56;28.90;68.60
39957;DHT22;48483;44.640;7.494;2022-08-25T10:56:28;28.80;68.80
39957;DHT22;48483;44.640;7.494;2022-08-25T10:59:20;28.90;69.40
39957;DHT22;48483;44.640;7.494;2022-08-25T11:02:09;28.90;69.40
39957;DHT22;48483;44.640;7.494;2022-08-25T11:04:45;28.90;69.30
39957;DHT22;48483;44.640;7.494;2022-08-25T11:07:19;29.10;70.10
39957;DHT22;48483;44.640;7.494;2022-08-25T11:09:49;29.10;69.40
39957;DHT22;48483;44.640;7.494;2022-08-25T11:12:25;29.20;68.80
39957;DHT22;48483;44.640;7.494;2022-08-25T11:14:57;29.20;68.00
39957;DHT22;48483;44.640;7.494;2022-08-25T11:17:28;29.20;68.20
39957;DHT22;48483;44.640;7.494;2022-08-25T11:20:04;29.20;68.30
39957;DHT22;48483;44.640;7.494;2022-08-25T11:22:37;29.30;68.40
39957;DHT22;48483;44.640;7.494;2022-08-25T11:25:11;29.30;67.90
39957;DHT22;48483;44.640;7.494;2022-08-25T11:27:45;29.30;68.00
39957;DHT22;48483;44.640;7.494;2022-08-25T11:30:15;29.40;68.20
39957;DHT22;48483;44.640;7.494;2022-08-25T11:32:46;29.30;68.40
39957;DHT22;48483;44.640;7.494;2022-08-25T11:35:18;29.40;67.50
39957;DHT22;48483;44.640;7.494;2022-08-25T11:38:08;29.40;67.80
39957;DHT22;48483;44.640;7.494;2022-08-25T11:40:51;29.40;67.20
39957;DHT22;48483;44.640;7.494;2022-08-25T11:43:31;29.40;67.00
39957;DHT22;48483;44.640;7.494;2022-08-25T11:46:10;29.40;65.80
39957;DHT22;48483;44.640;7.494;2022-08-25T11:48:50;29.30;65.80
39957;DHT22;48483;44.640;7.494;2022-08-25T11:51:30;29.40;65.80
39957;DHT22;48483;44.640;7.494;2022-08-25T11:54:16;29.50;65.90
39957;DHT22;48483;44.640;7.494;2022-08-25T11:56:51;29.50;65.80
39957;DHT22;48483;44.640;7.494;2022-08-25T12:02:37;29.50;65.50
39957;DHT22;48483;44.640;7.494;2022-08-25T12:05:06;29.60;65.40
39957;DHT22;48483;44.640;7.494;2022-08-25T12:08:08;29.60;65.00
39957;DHT22;48483;44.640;7.494;2022-08-25T12:10:59;29.70;65.00
39957;DHT22;48483;44.640;7.494;2022-08-25T12:13:39;29.70;65.40
39957;DHT22;48483;44.640;7.494;2022-08-25T12:16:09;29.80;65.60
39957;DHT22;48483;44.640;7.494;2022-08-25T12:19:23;29.80;65.20
39957;DHT22;48483;44.640;7.494;2022-08-25T12:21:55;29.80;65.60
39957;DHT22;48483;44.640;7.494;2022-08-25T12:24:45;29.90;65.50
39957;DHT22;48483;44.640;7.494;2022-08-25T12:27:24;29.90;65.60
39957;DHT22;48483;44.640;7.494;2022-08-25T12:29:56;29.70;65.50
39957;DHT22;48483;44.640;7.494;2022-08-25T12:32:46;29.70;66.20
39957;DHT22;48483;44.640;7.494;2022-08-25T12:35:29;29.70;66.10
39957;DHT22;48483;44.640;7.494;2022-08-25T12:37:59;29.70;65.70
39957;DHT22;48483;44.640;7.494;2022-08-25T12:40:31;29.60;65.80
39957;DHT22;48483;44.640;7.494;2022-08-25T12:43:02;29.70;66.40
39957;DHT22;48483;44.640;7.494;2022-08-25T12:45:39;29.80;66.90
39957;DHT22;48483;44.640;7.494;2022-08-25T12:48:40;29.80;66.20
39957;DHT22;48483;44.640;7.494;2022-08-25T12:51:14;29.80;66.10
39957;DHT22;48483;44.640;7.494;2022-08-25T12:53:43;29.70;66.10
39957;DHT22;48483;44.640;7.494;2022-08-25T12:56:21;29.70;66.10
39957;DHT22;48483;44.640;7.494;2022-08-25T12:59:02;29.70;66.10
39957;DHT22;48483;44.640;7.494;2022-08-25T13:01:38;29.70;66.40
39957;DHT22;48483;44.640;7.494;2022-08-25T13:04:34;29.70;66.30
39957;DHT22;48483;44.640;7.494;2022-08-25T13:10:07;29.70;66.40
39957;DHT22;48483;44.640;7.494;2022-08-25T13:12:42;29.80;66.60
39957;DHT22;48483;44.640;7.494;2022-08-25T13:15:14;29.80;66.60
39957;DHT22;48483;44.640;7.494;2022-08-25T13:17:41;29.90;66.80
39957;DHT22;48483;44.640;7.494;2022-08-25T13:20:12;29.90;67.20
39957;DHT22;48483;44.640;7.494;2022-08-25T13:22:42;29.90;66.10
39957;DHT22;48483;44.640;7.494;2022-08-25T13:25:14;29.90;66.10
39957;DHT22;48483;44.640;7.494;2022-08-25T13:27:47;29.80;66.30
39957;DHT22;48483;44.640;7.494;2022-08-25T13:30:22;29.90;66.40
39957;DHT22;48483;44.640;7.494;2022-08-25T13:32:50;30.00;66.90
39957;DHT22;48483;44.640;7.494;2022-08-25T13:35:20;30.00;66.90
39957;DHT22;48483;44.640;7.494;2022-08-25T13:37:48;30.00;66.40
39957;DHT22;48483;44.640;7.494;2022-08-25T13:40:20;30.00;65.90
39957;DHT22;48483;44.640;7.494;2022-08-25T13:42:50;29.90;66.00
39957;DHT22;48483;44.640;7.494;2022-08-25T13:45:19;29.90;65.70
39957;DHT22;48483;44.640;7.494;2022-08-25T13:47:47;29.90;65.40
39957;DHT22;48483;44.640;7.494;2022-08-25T13:50:18;29.90;65.70
39957;DHT22;48483;44.640;7.494;2022-08-25T13:52:48;29.80;65.30
39957;DHT22;48483;44.640;7.494;2022-08-25T13:55:20;29.80;65.10
39957;DHT22;48483;44.640;7.494;2022-08-25T13:57:49;29.80;65.90
39957;DHT22;48483;44.640;7.494;2022-08-25T14:00:27;29.80;66.10
39957;DHT22;48483;44.640;7.494;2022-08-25T14:02:54;29.80;66.30
39957;DHT22;48483;44.640;7.494;2022-08-25T14:05:35;29.90;66.60
39957;DHT22;48483;44.640;7.494;2022-08-25T14:08:05;29.80;65.60
39957;DHT22;48483;44.640;7.494;2022-08-25T14:10:38;29.80;65.70
39957;DHT22;48483;44.640;7.494;2022-08-25T14:13:12;29.70;65.70
39957;DHT22;48483;44.640;7.494;2022-08-25T14:15:39;29.80;66.50
39957;DHT22;48483;44.640;7.494;2022-08-25T14:18:10;29.70;66.70
39957;DHT22;48483;44.640;7.494;2022-08-25T14:20:43;29.80;67.10
39957;DHT22;48483;44.640;7.494;2022-08-25T14:23:15;29.90;67.60
39957;DHT22;48483;44.640;7.494;2022-08-25T14:25:42;29.80;66.70
39957;DHT22;48483;44.640;7.494;2022-08-25T14:28:13;29.80;66.90
39957;DHT22;48483;44.640;7.494;2022-08-25T14:30:40;29.80;67.30
39957;DHT22;48483;44.640;7.494;2022-08-25T14:33:08;29.80;66.60
39957;DHT22;48483;44.640;7.494;2022-08-25T14:35:35;29.80;66.50
39957;DHT22;48483;44.640;7.494;2022-08-25T14:38:07;29.80;66.00
39957;DHT22;48483;44.640;7.494;2022-08-25T14:40:35;29.80;66.20
39957;DHT22;48483;44.640;7.494;2022-08-25T14:43:02;29.80;65.70
39957;DHT22;48483;44.640;7.494;2022-08-25T14:45:30;29.80;65.70
39957;DHT22;48483;44.640;7.494;2022-08-25T14:48:02;29.80;66.00
39957;DHT22;48483;44.640;7.494;2022-08-25T14:50:29;29.80;66.10
39957;DHT22;48483;44.640;7.494;2022-08-25T14:52:57;29.90;66.60
39957;DHT22;48483;44.640;7.494;2022-08-25T14:55:25;29.90;66.50
39957;DHT22;48483;44.640;7.494;2022-08-25T14:57:51;29.90;67.10
39957;DHT22;48483;44.640;7.494;2022-08-25T15:00:18;29.80;66.60
39957;DHT22;48483;44.640;7.494;2022-08-25T15:02:48;29.90;67.00
39957;DHT22;48483;44.640;7.494;2022-08-25T15:05:20;29.90;67.00
39957;DHT22;48483;44.640;7.494;2022-08-25T15:07:48;29.90;66.40
39957;DHT22;48483;44.640;7.494;2022-08-25T15:10:33;29.80;66.50
39957;DHT22;48483;44.640;7.494;2022-08-25T15:12:59;29.90;66.50
39957;DHT22;48483;44.640;7.494;2022-08-25T15:15:26;29.80;66.10
39957;DHT22;48483;44.640;7.494;2022-08-25T15:17:55;29.80;66.20
39957;DHT22;48483;44.640;7.494;2022-08-25T15:20:23;29.80;66.20
39957;DHT22;48483;44.640;7.494;2022-08-25T15:22:49;29.80;66.30
39957;DHT22;48483;44.640;7.494;2022-08-25T15:25:16;29.80;66.80
39957;DHT22;48483;44.640;7.494;2022-08-25T15:27:43;29.80;67.20
39957;DHT22;48483;44.640;7.494;2022-08-25T15:30:11;29.80;67.50
39957;DHT22;48483;44.640;7.494;2022-08-25T15:32:38;29.80;67.40
39957;DHT22;48483;44.640;7.494;2022-08-25T15:35:07;29.80;67.40
39957;DHT22;48483;44.640;7.494;2022-08-25T15:37:34;29.80;66.10
39957;DHT22;48483;44.640;7.494;2022-08-25T15:40:01;29.80;66.00
39957;DHT22;48483;44.640;7.494;2022-08-25T15:42:28;29.80;66.20
39957;DHT22;48483;44.640;7.494;2022-08-25T15:44:54;29.70;66.50
39957;DHT22;48483;44.640;7.494;2022-08-25T15:47:22;29.70;66.50
39957;DHT22;48483;44.640;7.494;2022-08-25T15:49:49;29.60;66.80
39957;DHT22;48483;44.640;7.494;2022-08-25T15:52:21;29.60;67.20
39957;DHT22;48483;44.640;7.494;2022-08-25T15:54:47;29.60;67.60
39957;DHT22;48483;44.640;7.494;2022-08-25T15:57:14;29.50;68.50